sensor_id;sensor_type;location;lat;lon;timestamp;P1;durP1;ratioP1;P2;durP2;ratioP2
18857;SDS011;9558;50.178;8.370;2023-09-30T00:02:23;9.25;;;3.65;;
18857;SDS011;9558;50.178;8.370;2023-09-30T00:05:10;10.68;;;4.45;;
18857;SDS011;9558;50.178;8.370;2023-09-30T00:07:58;15.02;;;3.65;;
18857;SDS011;9558;50.178;8.370;2023-09-30T00:10:44;11.80;;;4.22;;
18857;SDS011;9558;50.178;8.370;2023-09-30T00:13:32;8.05;;;3.45;;
18857;SDS011;9558;50.178;8.370;2023-09-30T00:16:18;9.50;;;3.95;;
18857;SDS011;9558;50.178;8.370;2023-09-30T00:19:05;11.23;;;4.38;;
18857;SDS011;9558;50.178;8.370;2023-09-30T00:21:52;16.42;;;4.35;;
18857;SDS011;9558;50.178;8.370;2023-09-30T00:24:41;13.95;;;4.28;;
18857;SDS011;9558;50.178;8.370;2023-09-30T00:27:27;8.90;;;4.75;;
18857;SDS011;9558;50.178;8.370;2023-09-30T00:30:14;14.02;;;4.53;;
18857;SDS011;9558;50.178;8.370;2023-09-30T00:33:01;9.13;;;3.50;;
18857;SDS011;9558;50.178;8.370;2023-09-30T00:35:48;9.73;;;3.90;;
18857;SDS011;9558;50.178;8.370;2023-09-30T00:38:36;12.40;;;5.07;;
18857;SDS011;9558;50.178;8.370;2023-09-30T00:41:24;8.35;;;4.13;;
18857;SDS011;9558;50.178;8.370;2023-09-30T00:44:13;9.38;;;4.18;;
18857;SDS011;9558;50.178;8.370;2023-09-30T00:46:59;15.55;;;3.90;;
18857;SDS011;9558;50.178;8.370;2023-09-30T00:49:47;10.45;;;4.32;;
18857;SDS011;9558;50.178;8.370;2023-09-30T00:52:35;11.98;;;3.55;;
18857;SDS011;9558;50.178;8.370;2023-09-30T00:55:23;12.07;;;3.85;;
18857;SDS011;9558;50.178;8.370;2023-09-30T00:58:11;10.93;;;4.00;;
18857;SDS011;9558;50.178;8.370;2023-09-30T01:00:58;8.75;;;3.30;;
18857;SDS011;9558;50.178;8.370;2023-09-30T01:03:46;14.88;;;3.80;;
18857;SDS011;9558;50.178;8.370;2023-09-30T01:06:33;6.82;;;2.95;;
18857;SDS011;9558;50.178;8.370;2023-09-30T01:09:20;7.75;;;3.28;;
18857;SDS011;9558;50.178;8.370;2023-09-30T01:12:07;7.22;;;3.20;;
18857;SDS011;9558;50.178;8.370;2023-09-30T01:14:58;7.38;;;3.28;;
18857;SDS011;9558;50.178;8.370;2023-09-30T01:17:45;9.88;;;2.83;;
18857;SDS011;9558;50.178;8.370;2023-09-30T01:20:32;10.65;;;3.03;;
18857;SDS011;9558;50.178;8.370;2023-09-30T01:23:20;8.07;;;3.47;;
18857;SDS011;9558;50.178;8.370;2023-09-30T01:26:07;10.80;;;3.53;;
18857;SDS011;9558;50.178;8.370;2023-09-30T01:28:55;13.13;;;3.65;;
18857;SDS011;9558;50.178;8.370;2023-09-30T01:31:42;9.82;;;3.13;;
18857;SDS011;9558;50.178;8.370;2023-09-30T01:34:29;7.03;;;3.03;;
18857;SDS011;9558;50.178;8.370;2023-09-30T01:37:15;8.32;;;3.30;;
18857;SDS011;9558;50.178;8.370;2023-09-30T01:40:04;9.52;;;3.22;;
18857;SDS011;9558;50.178;8.370;2023-09-30T01:42:56;7.10;;;2.63;;
18857;SDS011;9558;50.178;8.370;2023-09-30T01:45:43;8.15;;;2.65;;
18857;SDS011;9558;50.178;8.370;2023-09-30T01:48:30;8.45;;;2.95;;
18857;SDS011;9558;50.178;8.370;2023-09-30T01:51:16;11.13;;;2.85;;
18857;SDS011;9558;50.178;8.370;2023-09-30T01:54:03;10.18;;;2.65;;
18857;SDS011;9558;50.178;8.370;2023-09-30T01:56:51;12.00;;;3.30;;
18857;SDS011;9558;50.178;8.370;2023-09-30T01:59:38;8.18;;;2.85;;
18857;SDS011;9558;50.178;8.370;2023-09-30T02:02:25;6.00;;;2.90;;
18857;SDS011;9558;50.178;8.370;2023-09-30T02:05:12;11.82;;;3.25;;
18857;SDS011;9558;50.178;8.370;2023-09-30T02:07:59;10.07;;;2.60;;
18857;SDS011;9558;50.178;8.370;2023-09-30T02:10:51;9.60;;;3.28;;
18857;SDS011;9558;50.178;8.370;2023-09-30T02:13:39;10.52;;;3.45;;
18857;SDS011;9558;50.178;8.370;2023-09-30T02:16:26;8.35;;;3.90;;
18857;SDS011;9558;50.178;8.370;2023-09-30T02:19:13;11.32;;;3.63;;
18857;SDS011;9558;50.178;8.370;2023-09-30T02:22:00;7.50;;;2.90;;
18857;SDS011;9558;50.178;8.370;2023-09-30T02:24:47;11.52;;;3.63;;
18857;SDS011;9558;50.178;8.370;2023-09-30T02:27:34;12.45;;;4.03;;
18857;SDS011;9558;50.178;8.370;2023-09-30T02:30:23;10.13;;;3.42;;
18857;SDS011;9558;50.178;8.370;2023-09-30T02:33:10;16.05;;;4.15;;
18857;SDS011;9558;50.178;8.370;2023-09-30T02:35:56;9.57;;;3.78;;
18857;SDS011;9558;50.178;8.370;2023-09-30T02:38:44;9.90;;;4.32;;
18857;SDS011;9558;50.178;8.370;2023-09-30T02:41:31;9.45;;;4.53;;
18857;SDS011;9558;50.178;8.370;2023-09-30T02:44:18;12.88;;;4.18;;
18857;SDS011;9558;50.178;8.370;2023-09-30T02:47:06;12.23;;;4.80;;
18857;SDS011;9558;50.178;8.370;2023-09-30T02:49:54;13.93;;;4.28;;
18857;SDS011;9558;50.178;8.370;2023-09-30T02:52:43;12.68;;;4.70;;
18857;SDS011;9558;50.178;8.370;2023-09-30T02:55:30;13.60;;;5.60;;
18857;SDS011;9558;50.178;8.370;2023-09-30T02:58:17;11.48;;;4.88;;
18857;SDS011;9558;50.178;8.370;2023-09-30T03:01:04;11.90;;;4.88;;
18857;SDS011;9558;50.178;8.370;2023-09-30T03:03:53;10.88;;;5.57;;
18857;SDS011;9558;50.178;8.370;2023-09-30T03:06:40;12.00;;;5.25;;
18857;SDS011;9558;50.178;8.370;2023-09-30T03:09:27;13.00;;;5.22;;
18857;SDS011;9558;50.178;8.370;2023-09-30T03:12:14;16.88;;;5.10;;
18857;SDS011;9558;50.178;8.370;2023-09-30T03:15:01;10.75;;;4.88;;
18857;SDS011;9558;50.178;8.370;2023-09-30T03:17:50;13.38;;;4.70;;
18857;SDS011;9558;50.178;8.370;2023-09-30T03:20:38;11.77;;;4.45;;
18857;SDS011;9558;50.178;8.370;2023-09-30T03:23:26;14.18;;;4.68;;
18857;SDS011;9558;50.178;8.370;2023-09-30T03:26:15;13.13;;;4.88;;
18857;SDS011;9558;50.178;8.370;2023-09-30T03:29:02;15.70;;;4.78;;
18857;SDS011;9558;50.178;8.370;2023-09-30T03:31:51;14.82;;;5.28;;
18857;SDS011;9558;50.178;8.370;2023-09-30T03:34:38;15.50;;;5.85;;
18857;SDS011;9558;50.178;8.370;2023-09-30T03:37:31;19.52;;;5.35;;
18857;SDS011;9558;50.178;8.370;2023-09-30T03:40:18;15.95;;;6.07;;
18857;SDS011;9558;50.178;8.370;2023-09-30T03:43:05;10.88;;;5.78;;
18857;SDS011;9558;50.178;8.370;2023-09-30T03:45:51;19.27;;;5.25;;
18857;SDS011;9558;50.178;8.370;2023-09-30T03:48:39;13.60;;;5.90;;
18857;SDS011;9558;50.178;8.370;2023-09-30T03:51:25;14.63;;;4.60;;
18857;SDS011;9558;50.178;8.370;2023-09-30T03:54:14;14.05;;;4.55;;
18857;SDS011;9558;50.178;8.370;2023-09-30T03:57:01;14.10;;;5.60;;
18857;SDS011;9558;50.178;8.370;2023-09-30T03:59:48;10.50;;;5.30;;
18857;SDS011;9558;50.178;8.370;2023-09-30T04:02:35;14.10;;;5.35;;
18857;SDS011;9558;50.178;8.370;2023-09-30T04:05:22;11.10;;;4.60;;
18857;SDS011;9558;50.178;8.370;2023-09-30T04:08:12;12.20;;;4.82;;
18857;SDS011;9558;50.178;8.370;2023-09-30T04:11:01;14.48;;;4.93;;
18857;SDS011;9558;50.178;8.370;2023-09-30T04:13:49;16.52;;;4.57;;
18857;SDS011;9558;50.178;8.370;2023-09-30T04:16:36;15.80;;;4.90;;
18857;SDS011;9558;50.178;8.370;2023-09-30T04:19:23;18.15;;;5.40;;
18857;SDS011;9558;50.178;8.370;2023-09-30T04:22:10;17.75;;;5.60;;
18857;SDS011;9558;50.178;8.370;2023-09-30T04:24:56;10.77;;;5.00;;
18857;SDS011;9558;50.178;8.370;2023-09-30T04:27:45;18.60;;;5.80;;
18857;SDS011;9558;50.178;8.370;2023-09-30T04:30:33;13.00;;;4.88;;
18857;SDS011;9558;50.178;8.370;2023-09-30T04:33:20;12.52;;;5.13;;
18857;SDS011;9558;50.178;8.370;2023-09-30T04:36:09;15.98;;;5.72;;
18857;SDS011;9558;50.178;8.370;2023-09-30T04:38:56;17.42;;;5.40;;
18857;SDS011;9558;50.178;8.370;2023-09-30T04:41:46;14.00;;;4.75;;
18857;SDS011;9558;50.178;8.370;2023-09-30T04:44:34;14.18;;;6.03;;
18857;SDS011;9558;50.178;8.370;2023-09-30T04:47:23;18.08;;;5.75;;
18857;SDS011;9558;50.178;8.370;2023-09-30T04:50:10;10.57;;;5.38;;
18857;SDS011;9558;50.178;8.370;2023-09-30T04:52:58;12.85;;;5.10;;
18857;SDS011;9558;50.178;8.370;2023-09-30T04:55:45;14.63;;;5.60;;
18857;SDS011;9558;50.178;8.370;2023-09-30T04:58:33;15.32;;;5.68;;
18857;SDS011;9558;50.178;8.370;2023-09-30T05:01:21;17.13;;;5.03;;
18857;SDS011;9558;50.178;8.370;2023-09-30T05:04:08;14.80;;;5.25;;
18857;SDS011;9558;50.178;8.370;2023-09-30T05:06:54;18.67;;;6.45;;
18857;SDS011;9558;50.178;8.370;2023-09-30T05:09:41;13.15;;;5.35;;
18857;SDS011;9558;50.178;8.370;2023-09-30T05:12:28;13.02;;;6.30;;
18857;SDS011;9558;50.178;8.370;2023-09-30T05:15:15;14.55;;;5.97;;
18857;SDS011;9558;50.178;8.370;2023-09-30T05:18:06;17.10;;;5.97;;
18857;SDS011;9558;50.178;8.370;2023-09-30T05:20:53;9.52;;;4.90;;
18857;SDS011;9558;50.178;8.370;2023-09-30T05:23:40;16.88;;;5.15;;
18857;SDS011;9558;50.178;8.370;2023-09-30T05:26:27;9.77;;;4.90;;
18857;SDS011;9558;50.178;8.370;2023-09-30T05:29:14;16.42;;;5.55;;
18857;SDS011;9558;50.178;8.370;2023-09-30T05:32:02;15.80;;;4.95;;
18857;SDS011;9558;50.178;8.370;2023-09-30T05:34:50;14.27;;;6.05;;
18857;SDS011;9558;50.178;8.370;2023-09-30T05:37:38;16.63;;;5.18;;
18857;SDS011;9558;50.178;8.370;2023-09-30T05:40:26;11.95;;;5.80;;
18857;SDS011;9558;50.178;8.370;2023-09-30T05:43:15;13.15;;;5.63;;
18857;SDS011;9558;50.178;8.370;2023-09-30T05:46:02;14.02;;;5.25;;
18857;SDS011;9558;50.178;8.370;2023-09-30T05:48:49;18.17;;;5.22;;
18857;SDS011;9558;50.178;8.370;2023-09-30T05:51:38;14.50;;;4.55;;
18857;SDS011;9558;50.178;8.370;2023-09-30T05:54:25;13.23;;;4.88;;
18857;SDS011;9558;50.178;8.370;2023-09-30T05:57:11;11.65;;;4.53;;
18857;SDS011;9558;50.178;8.370;2023-09-30T05:59:59;11.15;;;5.03;;
18857;SDS011;9558;50.178;8.370;2023-09-30T06:02:46;16.35;;;5.25;;
18857;SDS011;9558;50.178;8.370;2023-09-30T06:05:33;15.82;;;5.57;;
18857;SDS011;9558;50.178;8.370;2023-09-30T06:08:21;17.98;;;6.05;;
18857;SDS011;9558;50.178;8.370;2023-09-30T06:11:15;14.50;;;5.97;;
18857;SDS011;9558;50.178;8.370;2023-09-30T06:14:02;11.25;;;5.45;;
18857;SDS011;9558;50.178;8.370;2023-09-30T06:16:51;13.13;;;5.65;;
18857;SDS011;9558;50.178;8.370;2023-09-30T06:19:38;18.95;;;5.05;;
18857;SDS011;9558;50.178;8.370;2023-09-30T06:22:25;16.20;;;5.97;;
18857;SDS011;9558;50.178;8.370;2023-09-30T06:25:14;12.45;;;5.50;;
18857;SDS011;9558;50.178;8.370;2023-09-30T06:28:01;14.85;;;5.97;;
18857;SDS011;9558;50.178;8.370;2023-09-30T06:30:48;20.65;;;5.32;;
18857;SDS011;9558;50.178;8.370;2023-09-30T06:33:35;11.85;;;6.00;;
18857;SDS011;9558;50.178;8.370;2023-09-30T06:36:23;16.42;;;5.60;;
18857;SDS011;9558;50.178;8.370;2023-09-30T06:39:10;16.40;;;5.60;;
18857;SDS011;9558;50.178;8.370;2023-09-30T06:41:58;12.25;;;5.20;;
18857;SDS011;9558;50.178;8.370;2023-09-30T06:44:45;15.23;;;5.82;;
18857;SDS011;9558;50.178;8.370;2023-09-30T06:47:32;16.67;;;6.18;;
18857;SDS011;9558;50.178;8.370;2023-09-30T06:50:19;16.38;;;5.55;;
18857;SDS011;9558;50.178;8.370;2023-09-30T06:53:07;13.98;;;5.80;;
18857;SDS011;9558;50.178;8.370;2023-09-30T06:55:54;14.25;;;5.45;;
18857;SDS011;9558;50.178;8.370;2023-09-30T06:58:43;18.67;;;6.68;;
18857;SDS011;9558;50.178;8.370;2023-09-30T07:01:29;15.30;;;6.03;;
18857;SDS011;9558;50.178;8.370;2023-09-30T07:04:16;12.35;;;5.55;;
18857;SDS011;9558;50.178;8.370;2023-09-30T07:07:03;12.43;;;5.40;;
18857;SDS011;9558;50.178;8.370;2023-09-30T07:09:50;12.25;;;5.47;;
18857;SDS011;9558;50.178;8.370;2023-09-30T07:12:37;14.13;;;6.35;;
18857;SDS011;9558;50.178;8.370;2023-09-30T07:15:26;12.25;;;5.68;;
18857;SDS011;9558;50.178;8.370;2023-09-30T07:18:12;16.67;;;5.72;;
18857;SDS011;9558;50.178;8.370;2023-09-30T07:20:59;14.40;;;5.15;;
18857;SDS011;9558;50.178;8.370;2023-09-30T07:23:46;12.52;;;4.65;;
18857;SDS011;9558;50.178;8.370;2023-09-30T07:26:34;11.45;;;4.50;;
18857;SDS011;9558;50.178;8.370;2023-09-30T07:29:21;14.88;;;5.07;;
18857;SDS011;9558;50.178;8.370;2023-09-30T07:32:09;11.50;;;4.65;;
18857;SDS011;9558;50.178;8.370;2023-09-30T07:34:56;11.98;;;5.57;;
18857;SDS011;9558;50.178;8.370;2023-09-30T07:37:43;10.55;;;5.18;;
18857;SDS011;9558;50.178;8.370;2023-09-30T07:40:30;10.05;;;4.10;;
18857;SDS011;9558;50.178;8.370;2023-09-30T07:43:18;11.50;;;4.00;;
18857;SDS011;9558;50.178;8.370;2023-09-30T07:46:06;7.85;;;3.88;;
18857;SDS011;9558;50.178;8.370;2023-09-30T07:48:54;9.32;;;4.35;;
18857;SDS011;9558;50.178;8.370;2023-09-30T07:51:41;8.70;;;3.47;;
18857;SDS011;9558;50.178;8.370;2023-09-30T07:54:27;7.22;;;4.03;;
18857;SDS011;9558;50.178;8.370;2023-09-30T07:57:14;7.93;;;3.10;;
18857;SDS011;9558;50.178;8.370;2023-09-30T08:00:02;8.85;;;3.72;;
18857;SDS011;9558;50.178;8.370;2023-09-30T08:02:52;6.97;;;3.13;;
18857;SDS011;9558;50.178;8.370;2023-09-30T08:05:40;8.48;;;3.60;;
18857;SDS011;9558;50.178;8.370;2023-09-30T08:08:28;8.55;;;3.20;;
18857;SDS011;9558;50.178;8.370;2023-09-30T08:11:15;10.38;;;3.45;;
18857;SDS011;9558;50.178;8.370;2023-09-30T08:14:01;7.15;;;3.10;;
18857;SDS011;9558;50.178;8.370;2023-09-30T08:16:51;9.48;;;3.00;;
18857;SDS011;9558;50.178;8.370;2023-09-30T08:19:39;8.93;;;3.35;;
18857;SDS011;9558;50.178;8.370;2023-09-30T08:22:28;9.43;;;2.90;;
18857;SDS011;9558;50.178;8.370;2023-09-30T08:25:14;5.13;;;2.28;;
18857;SDS011;9558;50.178;8.370;2023-09-30T08:28:01;4.00;;;1.80;;
18857;SDS011;9558;50.178;8.370;2023-09-30T08:30:49;9.75;;;2.22;;
18857;SDS011;9558;50.178;8.370;2023-09-30T08:33:36;5.78;;;2.63;;
18857;SDS011;9558;50.178;8.370;2023-09-30T08:36:25;5.75;;;2.15;;
18857;SDS011;9558;50.178;8.370;2023-09-30T08:39:13;6.68;;;2.30;;
18857;SDS011;9558;50.178;8.370;2023-09-30T08:42:00;5.50;;;1.75;;
18857;SDS011;9558;50.178;8.370;2023-09-30T08:44:48;5.28;;;1.52;;
18857;SDS011;9558;50.178;8.370;2023-09-30T08:47:35;5.40;;;1.77;;
18857;SDS011;9558;50.178;8.370;2023-09-30T08:50:23;7.25;;;1.83;;
18857;SDS011;9558;50.178;8.370;2023-09-30T08:53:11;7.15;;;1.95;;
18857;SDS011;9558;50.178;8.370;2023-09-30T08:56:02;5.88;;;1.83;;
18857;SDS011;9558;50.178;8.370;2023-09-30T08:58:55;6.90;;;1.70;;
18857;SDS011;9558;50.178;8.370;2023-09-30T09:01:43;4.97;;;1.83;;
18857;SDS011;9558;50.178;8.370;2023-09-30T09:04:30;6.53;;;2.28;;
18857;SDS011;9558;50.178;8.370;2023-09-30T09:07:17;5.45;;;1.92;;
18857;SDS011;9558;50.178;8.370;2023-09-30T09:10:05;3.88;;;1.90;;
18857;SDS011;9558;50.178;8.370;2023-09-30T09:12:56;5.07;;;2.25;;
18857;SDS011;9558;50.178;8.370;2023-09-30T09:15:43;4.78;;;1.80;;
18857;SDS011;9558;50.178;8.370;2023-09-30T09:18:31;9.30;;;3.45;;
18857;SDS011;9558;50.178;8.370;2023-09-30T09:21:19;6.35;;;2.60;;
18857;SDS011;9558;50.178;8.370;2023-09-30T09:24:08;9.93;;;2.88;;
18857;SDS011;9558;50.178;8.370;2023-09-30T09:27:03;6.53;;;2.42;;
18857;SDS011;9558;50.178;8.370;2023-09-30T09:29:51;9.45;;;1.90;;
18857;SDS011;9558;50.178;8.370;2023-09-30T09:32:38;6.45;;;1.80;;
18857;SDS011;9558;50.178;8.370;2023-09-30T09:35:25;4.05;;;1.60;;
18857;SDS011;9558;50.178;8.370;2023-09-30T09:38:14;4.38;;;1.10;;
18857;SDS011;9558;50.178;8.370;2023-09-30T09:41:01;2.95;;;1.00;;
18857;SDS011;9558;50.178;8.370;2023-09-30T09:43:49;6.50;;;1.92;;
18857;SDS011;9558;50.178;8.370;2023-09-30T09:46:38;3.65;;;1.60;;
18857;SDS011;9558;50.178;8.370;2023-09-30T09:49:25;6.75;;;2.05;;
18857;SDS011;9558;50.178;8.370;2023-09-30T09:52:14;3.90;;;1.67;;
18857;SDS011;9558;50.178;8.370;2023-09-30T09:55:01;5.43;;;1.83;;
18857;SDS011;9558;50.178;8.370;2023-09-30T09:57:49;5.00;;;1.30;;
18857;SDS011;9558;50.178;8.370;2023-09-30T10:00:36;4.88;;;1.60;;
18857;SDS011;9558;50.178;8.370;2023-09-30T10:03:25;4.57;;;1.42;;
18857;SDS011;9558;50.178;8.370;2023-09-30T10:06:12;3.83;;;1.10;;
18857;SDS011;9558;50.178;8.370;2023-09-30T10:09:01;3.03;;;1.50;;
18857;SDS011;9558;50.178;8.370;2023-09-30T10:11:49;1.83;;;1.15;;
18857;SDS011;9558;50.178;8.370;2023-09-30T10:14:44;4.00;;;1.33;;
18857;SDS011;9558;50.178;8.370;2023-09-30T10:20:45;2.28;;;1.20;;
18857;SDS011;9558;50.178;8.370;2023-09-30T10:23:33;1.63;;;0.95;;
18857;SDS011;9558;50.178;8.370;2023-09-30T10:26:20;5.55;;;1.38;;
18857;SDS011;9558;50.178;8.370;2023-09-30T10:29:08;4.22;;;1.65;;
18857;SDS011;9558;50.178;8.370;2023-09-30T10:31:55;5.90;;;1.42;;
18857;SDS011;9558;50.178;8.370;2023-09-30T10:34:47;5.70;;;1.38;;
18857;SDS011;9558;50.178;8.370;2023-09-30T10:37:35;4.38;;;1.50;;
18857;SDS011;9558;50.178;8.370;2023-09-30T10:40:26;4.68;;;1.65;;
18857;SDS011;9558;50.178;8.370;2023-09-30T10:43:28;5.38;;;1.70;;
18857;SDS011;9558;50.178;8.370;2023-09-30T10:46:31;5.25;;;2.03;;
18857;SDS011;9558;50.178;8.370;2023-09-30T10:49:29;3.05;;;1.52;;
18857;SDS011;9558;50.178;8.370;2023-09-30T10:52:21;4.18;;;1.63;;
18857;SDS011;9558;50.178;8.370;2023-09-30T10:55:11;3.80;;;1.52;;
18857;SDS011;9558;50.178;8.370;2023-09-30T10:58:03;5.35;;;1.73;;
18857;SDS011;9558;50.178;8.370;2023-09-30T11:00:52;5.40;;;1.55;;
18857;SDS011;9558;50.178;8.370;2023-09-30T11:03:39;3.25;;;1.63;;
18857;SDS011;9558;50.178;8.370;2023-09-30T11:06:27;4.63;;;1.60;;
18857;SDS011;9558;50.178;8.370;2023-09-30T11:09:15;3.25;;;1.40;;
18857;SDS011;9558;50.178;8.370;2023-09-30T11:12:04;3.58;;;1.40;;
18857;SDS011;9558;50.178;8.370;2023-09-30T11:15:01;3.38;;;1.50;;
18857;SDS011;9558;50.178;8.370;2023-09-30T11:17:49;6.13;;;1.70;;
18857;SDS011;9558;50.178;8.370;2023-09-30T11:20:35;5.10;;;1.73;;
18857;SDS011;9558;50.178;8.370;2023-09-30T11:23:22;4.28;;;1.80;;
18857;SDS011;9558;50.178;8.370;2023-09-30T11:26:09;6.07;;;1.95;;
18857;SDS011;9558;50.178;8.370;2023-09-30T11:29:05;4.80;;;1.50;;
18857;SDS011;9558;50.178;8.370;2023-09-30T11:31:53;5.28;;;1.90;;
18857;SDS011;9558;50.178;8.370;2023-09-30T11:34:40;3.15;;;1.27;;
18857;SDS011;9558;50.178;8.370;2023-09-30T11:37:30;3.10;;;1.42;;
18857;SDS011;9558;50.178;8.370;2023-09-30T11:40:19;5.05;;;1.48;;
18857;SDS011;9558;50.178;8.370;2023-09-30T11:43:08;4.78;;;1.30;;
18857;SDS011;9558;50.178;8.370;2023-09-30T11:46:05;4.22;;;1.60;;
18857;SDS011;9558;50.178;8.370;2023-09-30T11:48:57;3.05;;;1.48;;
18857;SDS011;9558;50.178;8.370;2023-09-30T11:51:46;3.13;;;1.48;;
18857;SDS011;9558;50.178;8.370;2023-09-30T11:54:33;6.05;;;1.63;;
18857;SDS011;9558;50.178;8.370;2023-09-30T11:57:22;2.78;;;1.40;;
18857;SDS011;9558;50.178;8.370;2023-09-30T12:00:09;2.03;;;1.35;;
18857;SDS011;9558;50.178;8.370;2023-09-30T12:03:01;5.55;;;1.63;;
18857;SDS011;9558;50.178;8.370;2023-09-30T12:05:48;4.13;;;1.65;;
18857;SDS011;9558;50.178;8.370;2023-09-30T12:08:35;4.30;;;1.60;;
18857;SDS011;9558;50.178;8.370;2023-09-30T12:11:23;7.07;;;1.50;;
18857;SDS011;9558;50.178;8.370;2023-09-30T12:14:11;5.88;;;1.65;;
18857;SDS011;9558;50.178;8.370;2023-09-30T12:16:59;4.60;;;1.58;;
18857;SDS011;9558;50.178;8.370;2023-09-30T12:19:47;5.30;;;1.67;;
18857;SDS011;9558;50.178;8.370;2023-09-30T12:22:33;2.85;;;1.40;;
18857;SDS011;9558;50.178;8.370;2023-09-30T12:25:22;4.53;;;1.40;;
18857;SDS011;9558;50.178;8.370;2023-09-30T12:28:10;10.43;;;1.50;;
18857;SDS011;9558;50.178;8.370;2023-09-30T12:30:59;3.13;;;1.42;;
18857;SDS011;9558;50.178;8.370;2023-09-30T12:33:48;6.38;;;1.63;;
18857;SDS011;9558;50.178;8.370;2023-09-30T12:36:37;3.88;;;1.58;;
18857;SDS011;9558;50.178;8.370;2023-09-30T12:39:24;3.95;;;1.42;;
18857;SDS011;9558;50.178;8.370;2023-09-30T12:42:15;4.93;;;1.58;;
18857;SDS011;9558;50.178;8.370;2023-09-30T12:45:02;5.75;;;1.85;;
18857;SDS011;9558;50.178;8.370;2023-09-30T12:47:50;3.28;;;1.52;;
18857;SDS011;9558;50.178;8.370;2023-09-30T12:50:39;5.97;;;1.50;;
18857;SDS011;9558;50.178;8.370;2023-09-30T12:53:27;3.80;;;1.30;;
18857;SDS011;9558;50.178;8.370;2023-09-30T12:56:14;5.50;;;1.90;;
18857;SDS011;9558;50.178;8.370;2023-09-30T12:59:01;2.08;;;1.40;;
18857;SDS011;9558;50.178;8.370;2023-09-30T13:01:48;3.42;;;1.75;;
18857;SDS011;9558;50.178;8.370;2023-09-30T13:04:35;6.72;;;2.25;;
18857;SDS011;9558;50.178;8.370;2023-09-30T13:07:23;4.78;;;1.60;;
18857;SDS011;9558;50.178;8.370;2023-09-30T13:10:11;5.00;;;1.60;;
18857;SDS011;9558;50.178;8.370;2023-09-30T13:12:58;4.55;;;1.77;;
18857;SDS011;9558;50.178;8.370;2023-09-30T13:15:45;3.95;;;1.40;;
18857;SDS011;9558;50.178;8.370;2023-09-30T13:18:32;3.28;;;1.65;;
18857;SDS011;9558;50.178;8.370;2023-09-30T13:21:19;4.10;;;1.63;;
18857;SDS011;9558;50.178;8.370;2023-09-30T13:24:06;5.45;;;2.17;;
18857;SDS011;9558;50.178;8.370;2023-09-30T13:26:56;4.32;;;1.67;;
18857;SDS011;9558;50.178;8.370;2023-09-30T13:29:44;6.18;;;1.77;;
18857;SDS011;9558;50.178;8.370;2023-09-30T13:32:31;7.97;;;2.25;;
18857;SDS011;9558;50.178;8.370;2023-09-30T13:35:21;3.97;;;1.40;;
18857;SDS011;9558;50.178;8.370;2023-09-30T13:38:07;3.00;;;1.48;;
18857;SDS011;9558;50.178;8.370;2023-09-30T13:40:54;3.97;;;1.83;;
18857;SDS011;9558;50.178;8.370;2023-09-30T13:43:42;4.45;;;1.95;;
18857;SDS011;9558;50.178;8.370;2023-09-30T13:46:29;5.07;;;1.80;;
18857;SDS011;9558;50.178;8.370;2023-09-30T13:49:16;3.30;;;1.58;;
18857;SDS011;9558;50.178;8.370;2023-09-30T13:52:03;1.63;;;1.40;;
18857;SDS011;9558;50.178;8.370;2023-09-30T13:54:50;6.25;;;1.90;;
18857;SDS011;9558;50.178;8.370;2023-09-30T13:57:37;3.45;;;1.77;;
18857;SDS011;9558;50.178;8.370;2023-09-30T14:00:25;4.20;;;1.60;;
18857;SDS011;9558;50.178;8.370;2023-09-30T14:03:12;3.45;;;1.80;;
18857;SDS011;9558;50.178;8.370;2023-09-30T14:05:59;3.90;;;1.55;;
18857;SDS011;9558;50.178;8.370;2023-09-30T14:08:45;5.50;;;1.60;;
18857;SDS011;9558;50.178;8.370;2023-09-30T14:11:32;3.47;;;1.65;;
18857;SDS011;9558;50.178;8.370;2023-09-30T14:14:19;5.43;;;1.75;;
18857;SDS011;9558;50.178;8.370;2023-09-30T14:17:07;8.18;;;1.95;;
18857;SDS011;9558;50.178;8.370;2023-09-30T14:19:55;6.72;;;1.70;;
18857;SDS011;9558;50.178;8.370;2023-09-30T14:22:42;6.05;;;1.88;;
18857;SDS011;9558;50.178;8.370;2023-09-30T14:25:29;6.72;;;2.20;;
18857;SDS011;9558;50.178;8.370;2023-09-30T14:28:16;4.05;;;1.70;;
18857;SDS011;9558;50.178;8.370;2023-09-30T14:31:03;5.18;;;1.70;;
18857;SDS011;9558;50.178;8.370;2023-09-30T14:33:51;3.13;;;1.50;;
18857;SDS011;9558;50.178;8.370;2023-09-30T14:36:38;4.55;;;1.88;;
18857;SDS011;9558;50.178;8.370;2023-09-30T14:39:25;4.80;;;1.52;;
18857;SDS011;9558;50.178;8.370;2023-09-30T14:42:12;6.25;;;1.80;;
18857;SDS011;9558;50.178;8.370;2023-09-30T14:44:58;3.42;;;1.73;;
18857;SDS011;9558;50.178;8.370;2023-09-30T14:47:45;2.60;;;1.10;;
18857;SDS011;9558;50.178;8.370;2023-09-30T14:50:33;4.90;;;1.50;;
18857;SDS011;9558;50.178;8.370;2023-09-30T14:53:22;4.93;;;1.60;;
18857;SDS011;9558;50.178;8.370;2023-09-30T14:56:14;6.03;;;1.65;;
18857;SDS011;9558;50.178;8.370;2023-09-30T14:59:02;6.68;;;1.77;;
18857;SDS011;9558;50.178;8.370;2023-09-30T15:01:49;4.07;;;1.73;;
18857;SDS011;9558;50.178;8.370;2023-09-30T15:04:38;5.00;;;1.40;;
18857;SDS011;9558;50.178;8.370;2023-09-30T15:07:27;5.60;;;1.85;;
18857;SDS011;9558;50.178;8.370;2023-09-30T15:10:13;4.60;;;1.80;;
18857;SDS011;9558;50.178;8.370;2023-09-30T15:13:00;2.38;;;1.23;;
18857;SDS011;9558;50.178;8.370;2023-09-30T15:15:47;5.22;;;1.52;;
18857;SDS011;9558;50.178;8.370;2023-09-30T15:18:33;5.70;;;1.80;;
18857;SDS011;9558;50.178;8.370;2023-09-30T15:21:20;4.60;;;1.38;;
18857;SDS011;9558;50.178;8.370;2023-09-30T15:24:10;3.67;;;1.70;;
18857;SDS011;9558;50.178;8.370;2023-09-30T15:27:00;3.40;;;1.45;;
18857;SDS011;9558;50.178;8.370;2023-09-30T15:29:47;4.65;;;1.80;;
18857;SDS011;9558;50.178;8.370;2023-09-30T15:32:34;3.97;;;1.52;;
18857;SDS011;9558;50.178;8.370;2023-09-30T15:35:21;2.80;;;1.30;;
18857;SDS011;9558;50.178;8.370;2023-09-30T15:38:08;3.25;;;1.30;;
18857;SDS011;9558;50.178;8.370;2023-09-30T15:40:56;5.38;;;1.50;;
18857;SDS011;9558;50.178;8.370;2023-09-30T15:43:43;6.63;;;1.48;;
18857;SDS011;9558;50.178;8.370;2023-09-30T15:46:30;4.85;;;1.73;;
18857;SDS011;9558;50.178;8.370;2023-09-30T15:49:17;2.97;;;1.30;;
18857;SDS011;9558;50.178;8.370;2023-09-30T15:52:04;5.20;;;1.80;;
18857;SDS011;9558;50.178;8.370;2023-09-30T15:54:51;3.88;;;1.70;;
18857;SDS011;9558;50.178;8.370;2023-09-30T15:57:39;3.47;;;1.60;;
18857;SDS011;9558;50.178;8.370;2023-09-30T16:00:27;4.85;;;1.80;;
18857;SDS011;9558;50.178;8.370;2023-09-30T16:03:14;3.33;;;1.65;;
18857;SDS011;9558;50.178;8.370;2023-09-30T16:06:03;3.20;;;1.50;;
18857;SDS011;9558;50.178;8.370;2023-09-30T16:08:51;3.92;;;1.45;;
18857;SDS011;9558;50.178;8.370;2023-09-30T16:11:38;5.50;;;1.95;;
18857;SDS011;9558;50.178;8.370;2023-09-30T16:14:26;7.88;;;1.73;;
18857;SDS011;9558;50.178;8.370;2023-09-30T16:17:12;3.83;;;1.85;;
18857;SDS011;9558;50.178;8.370;2023-09-30T16:19:59;7.05;;;2.58;;
18857;SDS011;9558;50.178;8.370;2023-09-30T16:22:46;3.33;;;1.90;;
18857;SDS011;9558;50.178;8.370;2023-09-30T16:25:33;4.22;;;1.65;;
18857;SDS011;9558;50.178;8.370;2023-09-30T16:28:20;4.07;;;2.20;;
18857;SDS011;9558;50.178;8.370;2023-09-30T16:31:09;4.85;;;1.88;;
18857;SDS011;9558;50.178;8.370;2023-09-30T16:33:55;4.15;;;1.90;;
18857;SDS011;9558;50.178;8.370;2023-09-30T16:36:43;4.78;;;1.83;;
18857;SDS011;9558;50.178;8.370;2023-09-30T16:39:29;4.53;;;2.08;;
18857;SDS011;9558;50.178;8.370;2023-09-30T16:42:16;2.35;;;1.52;;
18857;SDS011;9558;50.178;8.370;2023-09-30T16:45:03;4.57;;;2.05;;
18857;SDS011;9558;50.178;8.370;2023-09-30T16:47:52;5.20;;;2.25;;
18857;SDS011;9558;50.178;8.370;2023-09-30T16:50:40;4.53;;;1.75;;
18857;SDS011;9558;50.178;8.370;2023-09-30T16:53:27;3.40;;;1.70;;
18857;SDS011;9558;50.178;8.370;2023-09-30T16:56:14;5.72;;;1.80;;
18857;SDS011;9558;50.178;8.370;2023-09-30T16:59:01;4.82;;;1.52;;
18857;SDS011;9558;50.178;8.370;2023-09-30T17:01:49;4.63;;;1.98;;
18857;SDS011;9558;50.178;8.370;2023-09-30T17:04:37;5.43;;;1.88;;